createdAt,value
2019-02-07T00:00:28.916Z,36.83
2019-02-07T00:01:36.785Z,38.17
2019-02-07T00:02:43.070Z,40.28
2019-02-07T00:03:49.485Z,38.78
2019-02-07T00:04:55.799Z,38.38
2019-02-07T00:06:02.211Z,38.63
2019-02-07T00:07:08.423Z,39.78
2019-02-07T00:08:14.852Z,38.98
2019-02-07T00:09:21.241Z,38.48
2019-02-07T00:10:27.861Z,39.33
2019-02-07T00:11:34.727Z,38.95
2019-02-07T00:12:41.298Z,39.13
2019-02-07T00:13:47.698Z,39.33
2019-02-07T00:14:54.320Z,40.03
2019-02-07T00:16:00.738Z,40.90
2019-02-07T00:17:07.264Z,38.58
2019-02-07T00:18:13.604Z,41.65
2019-02-07T00:19:20.152Z,40.90
2019-02-07T00:20:26.490Z,41.05
2019-02-07T00:21:32.981Z,39.95
2019-02-07T00:22:39.505Z,41.05
2019-02-07T00:23:45.672Z,40.58
2019-02-07T00:24:52.268Z,42.38
2019-02-07T00:25:59.662Z,41.88
2019-02-07T00:27:06.109Z,41.40
2019-02-07T00:28:12.757Z,41.37
2019-02-07T00:29:20.171Z,41.30
2019-02-07T00:30:26.614Z,40.48
2019-02-07T00:31:33.086Z,42.10
2019-02-07T00:32:40.374Z,41.92
2019-02-07T00:33:46.863Z,40.03
2019-02-07T00:34:53.346Z,41.55
2019-02-07T00:35:59.952Z,40.73
2019-02-07T00:37:06.555Z,39.88
2019-02-07T00:38:14.060Z,42.43
2019-02-07T00:39:21.857Z,43.05
2019-02-07T00:40:28.383Z,41.15
2019-02-07T00:41:35.011Z,40.03
2019-02-07T00:42:41.412Z,39.83
2019-02-07T00:43:47.905Z,41.48
2019-02-07T00:44:54.545Z,39.42
2019-02-07T00:46:01.213Z,40.15
2019-02-07T00:47:07.840Z,39.88
2019-02-07T00:48:14.667Z,38.70
2019-02-07T00:49:21.030Z,39.83
2019-02-07T00:50:27.550Z,40.30
2019-02-07T00:51:33.828Z,39.63
2019-02-07T00:52:40.465Z,40.10
2019-02-07T00:53:46.812Z,39.95
2019-02-07T00:54:53.301Z,40.63
2019-02-07T00:56:00.202Z,40.43
2019-02-07T00:57:06.902Z,39.73
2019-02-07T00:58:13.493Z,42.00
2019-02-07T00:59:19.844Z,40.58
2019-02-07T01:00:26.775Z,40.35
2019-02-07T01:01:33.137Z,41.30
2019-02-07T01:02:39.589Z,41.37
2019-02-07T01:03:45.905Z,41.13
2019-02-07T01:04:52.468Z,41.33
2019-02-07T01:05:59.223Z,40.17
2019-02-07T01:07:05.941Z,40.38
2019-02-07T01:08:12.331Z,41.28
2019-02-07T01:09:20.461Z,39.83
2019-02-07T01:10:27.689Z,40.40
2019-02-07T01:11:34.132Z,39.75
2019-02-07T01:12:40.706Z,41.45
2019-02-07T01:13:47.283Z,41.88
2019-02-07T01:15:01.678Z,40.98
2019-02-07T01:16:02.331Z,42.03
2019-02-07T01:17:08.801Z,41.18
2019-02-07T01:18:15.142Z,39.25
2019-02-07T01:19:21.636Z,40.55
2019-02-07T01:20:28.250Z,41.63
2019-02-07T01:21:34.966Z,41.20
2019-02-07T01:22:41.694Z,43.10
2019-02-07T01:23:48.012Z,42.55
2019-02-07T01:24:54.409Z,42.00
2019-02-07T01:26:00.642Z,42.85
2019-02-07T01:27:06.886Z,42.60
2019-02-07T01:28:13.432Z,43.50
2019-02-07T01:29:21.131Z,46.88
2019-02-07T01:30:27.858Z,44.15
2019-02-07T01:31:34.268Z,45.63
2019-02-07T01:32:40.611Z,44.67
2019-02-07T01:33:47.052Z,44.13
2019-02-07T01:34:53.604Z,46.10
2019-02-07T01:36:00.678Z,46.05
2019-02-07T01:37:06.953Z,43.85
2019-02-07T01:38:13.371Z,44.05
2019-02-07T01:39:19.973Z,43.87
2019-02-07T01:40:26.251Z,44.23
2019-02-07T01:41:32.588Z,45.65
2019-02-07T01:42:38.853Z,42.73
2019-02-07T01:43:45.202Z,43.58
2019-02-07T01:44:51.549Z,44.42
2019-02-07T01:45:58.039Z,45.03
2019-02-07T01:47:04.398Z,44.40
2019-02-07T01:48:10.608Z,44.08
2019-02-07T01:49:17.011Z,42.75
2019-02-07T01:50:25.746Z,43.63
2019-02-07T01:51:32.169Z,41.80
2019-02-07T01:52:38.903Z,44.65
2019-02-07T01:53:45.723Z,44.25
2019-02-07T01:54:52.450Z,45.03
2019-02-07T01:55:58.759Z,44.85
2019-02-07T01:57:05.138Z,44.60
2019-02-07T01:58:11.494Z,43.98
2019-02-07T01:59:17.727Z,42.27
2019-02-07T02:00:23.962Z,44.60
2019-02-07T02:01:30.357Z,43.30
2019-02-07T02:02:36.731Z,43.58
2019-02-07T02:03:43.085Z,40.55
2019-02-07T02:04:49.673Z,39.85
2019-02-07T02:05:56.222Z,40.95
2019-02-07T02:07:02.542Z,41.50
2019-02-07T02:08:09.257Z,38.80
2019-02-07T02:09:15.482Z,40.98
2019-02-07T02:10:24.004Z,41.42
2019-02-07T02:11:30.543Z,41.23
2019-02-07T02:12:36.911Z,40.33
2019-02-07T02:13:43.485Z,42.85
2019-02-07T02:14:50.072Z,42.08
2019-02-07T02:15:56.503Z,40.90
2019-02-07T02:17:02.905Z,40.43
2019-02-07T02:18:09.321Z,41.05
2019-02-07T02:19:16.645Z,41.70
2019-02-07T02:20:24.322Z,40.25
2019-02-07T02:21:31.823Z,42.35
2019-02-07T02:22:38.309Z,40.08
2019-02-07T02:23:44.703Z,42.83
2019-02-07T02:24:51.224Z,40.65
2019-02-07T02:25:57.782Z,40.67
2019-02-07T02:27:04.760Z,41.45
2019-02-07T02:28:12.037Z,41.48
2019-02-07T02:29:18.590Z,40.48
2019-02-07T02:30:30.129Z,42.15
2019-02-07T02:31:36.727Z,41.33
2019-02-07T02:32:43.360Z,43.65
2019-02-07T02:33:49.722Z,41.95
2019-02-07T02:34:56.082Z,42.17
2019-02-07T02:36:02.796Z,41.85
2019-02-07T02:37:09.125Z,43.00
2019-02-07T02:38:16.456Z,42.33
2019-02-07T02:39:22.824Z,45.30
2019-02-07T02:40:29.317Z,46.30
2019-02-07T02:41:36.086Z,45.73
2019-02-07T02:42:42.590Z,44.88
2019-02-07T02:43:48.974Z,44.20
2019-02-07T02:44:55.659Z,45.33
2019-02-07T02:46:02.196Z,42.67
2019-02-07T02:47:09.062Z,41.05
2019-02-07T02:48:15.369Z,41.18
2019-02-07T02:49:21.811Z,41.13
2019-02-07T02:50:28.567Z,41.40
2019-02-07T02:51:35.324Z,41.63
2019-02-07T02:52:41.579Z,42.35
2019-02-07T02:53:48.027Z,41.45
2019-02-07T02:54:57.447Z,43.78
2019-02-07T02:56:04.591Z,44.08
2019-02-07T02:57:11.001Z,41.10
2019-02-07T02:58:17.464Z,43.48
2019-02-07T02:59:23.874Z,43.08
2019-02-07T03:00:47.991Z,42.08
2019-02-07T03:02:03.385Z,40.40
2019-02-07T03:03:36.125Z,39.33
2019-02-07T03:05:06.137Z,38.85
2019-02-07T03:06:30.511Z,41.40
2019-02-07T03:07:56.641Z,38.60
2019-02-07T03:09:34.439Z,37.13
2019-02-07T03:11:07.716Z,36.17
2019-02-07T03:12:31.790Z,37.58
2019-02-07T03:14:03.549Z,36.48
2019-02-07T03:15:28.942Z,36.68
2019-02-07T03:16:52.602Z,36.33
2019-02-07T03:18:16.887Z,36.50
2019-02-07T03:19:40.843Z,32.20
2019-02-07T03:21:06.048Z,33.75
2019-02-07T03:22:30.419Z,34.80
2019-02-07T03:23:54.492Z,37.35
2019-02-07T03:25:21.428Z,38.48
2019-02-07T03:26:39.159Z,36.48
2019-02-07T03:28:03.229Z,35.83
2019-02-07T03:29:27.812Z,34.38
2019-02-07T03:30:56.286Z,34.55
2019-02-07T03:32:13.081Z,34.60
2019-02-07T03:33:38.487Z,33.55
2019-02-07T03:35:09.717Z,34.58
2019-02-07T03:36:36.049Z,34.18
2019-02-07T03:38:00.011Z,37.55
2019-02-07T03:39:23.285Z,36.98
2019-02-07T03:40:51.736Z,35.63
2019-02-07T03:42:32.098Z,35.85
2019-02-07T03:44:09.988Z,33.48
2019-02-07T03:45:31.907Z,34.95
2019-02-07T03:46:57.118Z,35.75
2019-02-07T03:48:24.449Z,35.05
2019-02-07T03:49:42.285Z,34.50
2019-02-07T03:51:13.418Z,34.15
2019-02-07T03:52:36.052Z,32.60
2019-02-07T03:54:00.119Z,31.00
2019-02-07T03:55:24.498Z,32.15
2019-02-07T03:56:55.839Z,31.10
2019-02-07T03:58:23.290Z,30.68
2019-02-07T03:59:48.797Z,29.40
2019-02-07T04:01:17.068Z,28.80
2019-02-07T04:02:42.874Z,27.85
2019-02-07T04:04:03.778Z,29.35
2019-02-07T04:05:29.590Z,28.40
2019-02-07T04:06:48.345Z,27.58
2019-02-07T04:08:16.908Z,28.85
2019-02-07T04:09:42.255Z,27.85
2019-02-07T04:11:21.439Z,26.90
2019-02-07T04:12:53.178Z,25.60
2019-02-07T04:14:15.205Z,27.85
2019-02-07T04:15:36.921Z,26.35
2019-02-07T04:17:01.408Z,25.55
2019-02-07T04:18:26.907Z,25.02
2019-02-07T04:19:50.882Z,27.07
2019-02-07T04:21:28.575Z,25.10
2019-02-07T04:23:02.977Z,25.95
2019-02-07T04:24:27.767Z,25.37
2019-02-07T04:26:02.486Z,25.15
2019-02-07T04:27:23.423Z,25.40
2019-02-07T04:28:44.907Z,24.63
2019-02-07T04:30:21.040Z,24.27
2019-02-07T04:31:43.899Z,25.08
2019-02-07T04:33:07.762Z,25.72
2019-02-07T04:34:32.134Z,24.18
2019-02-07T04:35:56.818Z,25.57
2019-02-07T04:37:22.332Z,25.20
2019-02-07T04:38:46.704Z,24.98
2019-02-07T04:40:12.744Z,25.68
2019-02-07T04:41:44.778Z,26.27
2019-02-07T04:43:09.053Z,28.27
2019-02-07T04:44:45.617Z,27.60
2019-02-07T04:46:27.314Z,28.17
2019-02-07T04:48:07.963Z,30.00
2019-02-07T04:49:28.857Z,37.03
2019-02-07T04:50:52.828Z,38.67
2019-02-07T04:52:24.070Z,36.93
2019-02-07T04:53:52.242Z,38.38
2019-02-07T04:55:34.529Z,38.15
2019-02-07T04:56:51.842Z,37.40
2019-02-07T04:58:15.912Z,33.92
2019-02-07T04:59:51.268Z,35.38
2019-02-07T05:01:15.420Z,30.65
2019-02-07T05:02:38.878Z,33.18
2019-02-07T05:04:04.273Z,31.33
2019-02-07T05:05:32.954Z,28.65
2019-02-07T05:07:04.195Z,26.82
2019-02-07T05:08:21.416Z,29.30
2019-02-07T05:09:49.469Z,29.77
2019-02-07T05:11:17.541Z,29.40
2019-02-07T05:12:46.008Z,27.85
2019-02-07T05:14:17.150Z,26.27
2019-02-07T05:15:51.461Z,29.92
2019-02-07T05:17:17.271Z,27.05
2019-02-07T05:18:42.629Z,26.00
2019-02-07T05:20:04.997Z,27.10
2019-02-07T05:21:30.414Z,24.43
2019-02-07T05:22:54.370Z,25.40
2019-02-07T05:24:11.479Z,25.00
2019-02-07T05:25:40.055Z,25.77
2019-02-07T05:26:57.883Z,26.65
2019-02-07T05:28:27.069Z,24.90
2019-02-07T05:29:43.555Z,25.82
2019-02-07T05:31:15.304Z,28.15
2019-02-07T05:32:38.280Z,26.37
2019-02-07T05:34:00.591Z,28.05
2019-02-07T05:35:26.909Z,28.25
2019-02-07T05:36:44.015Z,27.50
2019-02-07T05:38:12.399Z,26.40
2019-02-07T05:39:28.170Z,26.48
2019-02-07T05:40:59.734Z,26.05
2019-02-07T05:42:37.825Z,26.60
2019-02-07T05:44:01.785Z,28.05
2019-02-07T05:45:42.748Z,25.02
2019-02-07T05:47:06.924Z,25.60
2019-02-07T05:48:32.240Z,24.02
2019-02-07T05:50:00.397Z,26.25
2019-02-07T05:51:29.216Z,23.42
2019-02-07T05:52:53.760Z,22.00
2019-02-07T05:54:22.339Z,21.97
2019-02-07T05:55:48.468Z,22.00
2019-02-07T05:57:26.458Z,22.67
2019-02-07T05:58:51.256Z,22.98
2019-02-07T06:00:16.479Z,22.37
2019-02-07T06:01:58.048Z,23.98
2019-02-07T06:03:24.367Z,24.02
2019-02-07T06:04:48.613Z,21.57
2019-02-07T06:06:23.768Z,21.62
2019-02-07T06:07:50.352Z,21.52
2019-02-07T06:09:12.144Z,22.37
2019-02-07T06:10:41.080Z,23.05
2019-02-07T06:12:16.612Z,23.80
2019-02-07T06:13:41.332Z,21.27
2019-02-07T06:15:07.838Z,23.10
2019-02-07T06:16:48.802Z,21.52
2019-02-07T06:18:14.106Z,22.52
2019-02-07T06:19:58.547Z,22.93
2019-02-07T06:21:13.112Z,24.27
2019-02-07T06:22:42.187Z,23.12
2019-02-07T06:24:06.986Z,24.50
2019-02-07T06:25:31.992Z,22.42
2019-02-07T06:27:08.427Z,23.92
2019-02-07T06:28:33.423Z,24.77
2019-02-07T06:29:59.443Z,24.75
2019-02-07T06:31:37.645Z,30.68
2019-02-07T06:33:09.940Z,26.00
2019-02-07T06:34:37.808Z,29.25
2019-02-07T06:36:06.847Z,27.98
2019-02-07T06:37:41.456Z,26.65
2019-02-07T06:39:19.153Z,25.77
2019-02-07T06:40:42.495Z,28.95
2019-02-07T06:42:18.041Z,28.75
2019-02-07T06:43:42.538Z,24.85
2019-02-07T06:45:08.241Z,22.58
2019-02-07T06:46:29.242Z,23.12
2019-02-07T06:48:00.986Z,24.37
2019-02-07T06:49:22.288Z,24.40
2019-02-07T06:50:40.835Z,22.15
2019-02-07T06:52:10.633Z,23.10
2019-02-07T06:53:34.914Z,20.72
2019-02-07T06:55:00.299Z,20.40
2019-02-07T06:56:41.067Z,20.48
2019-02-07T06:58:05.350Z,19.77
2019-02-07T06:59:33.930Z,20.60
2019-02-07T07:01:05.258Z,18.87
2019-02-07T07:02:29.650Z,18.50
2019-02-07T07:03:57.583Z,18.92
2019-02-07T07:05:22.294Z,18.85
2019-02-07T07:06:52.113Z,19.00
2019-02-07T07:08:12.892Z,18.92
2019-02-07T07:09:43.522Z,18.20
2019-02-07T07:11:17.723Z,20.27
2019-02-07T07:12:48.968Z,16.05
2019-02-07T07:14:22.450Z,15.72
2019-02-07T07:15:47.981Z,15.70
2019-02-07T07:17:25.560Z,14.63
2019-02-07T07:18:41.851Z,15.45
2019-02-07T07:20:16.973Z,15.58
2019-02-07T07:21:44.730Z,14.80
2019-02-07T07:23:16.067Z,15.03
2019-02-07T07:24:55.198Z,13.80
2019-02-07T07:26:19.165Z,16.20
2019-02-07T07:27:46.575Z,13.72
2019-02-07T07:29:24.200Z,12.55
2019-02-07T07:30:56.069Z,13.65
2019-02-07T07:32:27.698Z,13.95
2019-02-07T07:33:59.047Z,13.90
2019-02-07T07:35:37.762Z,14.15
2019-02-07T07:37:01.730Z,13.28
2019-02-07T07:38:22.526Z,13.70
2019-02-07T07:39:56.832Z,14.60
2019-02-07T07:41:25.094Z,13.72
2019-02-07T07:42:49.477Z,14.38
2019-02-07T07:44:14.887Z,13.90
2019-02-07T07:45:37.820Z,14.00
2019-02-07T07:47:01.079Z,12.95
2019-02-07T07:48:25.660Z,13.68
2019-02-07T07:49:54.229Z,14.28
2019-02-07T07:51:13.078Z,12.45
2019-02-07T07:52:36.946Z,13.85
2019-02-07T07:54:14.437Z,13.38
2019-02-07T07:55:46.699Z,14.63
2019-02-07T07:57:10.655Z,13.50
2019-02-07T07:58:29.111Z,13.10
2019-02-07T07:59:49.286Z,14.53
2019-02-07T08:01:17.339Z,13.32
2019-02-07T08:02:45.819Z,13.40
2019-02-07T08:04:06.426Z,13.38
2019-02-07T08:05:19.642Z,13.80
2019-02-07T08:06:44.110Z,13.30
2019-02-07T08:08:08.177Z,13.30
2019-02-07T08:09:45.905Z,12.63
2019-02-07T08:11:10.043Z,13.28
2019-02-07T08:12:44.640Z,12.95
2019-02-07T08:14:09.139Z,13.13
2019-02-07T08:15:35.055Z,12.25
2019-02-07T08:16:59.427Z,12.58
2019-02-07T08:18:35.091Z,12.80
2019-02-07T08:19:59.248Z,13.30
2019-02-07T08:21:34.380Z,11.85
2019-02-07T08:23:08.493Z,12.10
2019-02-07T08:24:49.447Z,13.45
2019-02-07T08:26:10.267Z,13.22
2019-02-07T08:27:41.996Z,13.15
2019-02-07T08:29:06.571Z,13.32
2019-02-07T08:30:36.411Z,12.45
2019-02-07T08:31:59.461Z,13.18
2019-02-07T08:33:44.905Z,12.85
2019-02-07T08:35:13.200Z,12.37
2019-02-07T08:36:51.573Z,12.40
2019-02-07T08:38:25.894Z,13.38
2019-02-07T08:39:49.759Z,12.47
2019-02-07T08:41:30.520Z,11.88
2019-02-07T08:43:02.585Z,12.00
2019-02-07T08:44:28.997Z,12.33
2019-02-07T08:45:53.092Z,14.00
2019-02-07T08:47:21.556Z,13.15
2019-02-07T08:48:46.745Z,12.70
2019-02-07T08:50:24.304Z,12.53
2019-02-07T08:52:00.591Z,12.60
2019-02-07T08:53:25.890Z,14.33
2019-02-07T08:55:03.584Z,12.58
2019-02-07T08:56:38.712Z,12.90
2019-02-07T08:58:11.512Z,13.35
2019-02-07T08:59:28.173Z,12.80
2019-02-07T09:01:08.428Z,13.83
2019-02-07T09:02:34.347Z,13.98
2019-02-07T09:03:59.948Z,14.07
2019-02-07T09:05:24.843Z,16.67
2019-02-07T09:06:52.812Z,15.80
2019-02-07T09:08:31.215Z,15.28
2019-02-07T09:09:52.926Z,14.75
2019-02-07T09:11:31.034Z,13.35
2019-02-07T09:12:57.465Z,13.65
2019-02-07T09:14:10.981Z,11.73
2019-02-07T09:15:25.936Z,12.37
2019-02-07T09:16:51.333Z,13.20
2019-02-07T09:18:15.713Z,11.53
2019-02-07T09:19:41.420Z,12.23
2019-02-07T09:21:02.631Z,12.53
2019-02-07T09:22:30.688Z,12.73
2019-02-07T09:24:02.137Z,12.18
2019-02-07T09:25:46.378Z,10.58
2019-02-07T09:27:14.644Z,10.98
2019-02-07T09:28:42.625Z,11.03
2019-02-07T09:30:06.691Z,11.80
2019-02-07T09:31:44.373Z,11.40
2019-02-07T09:33:10.360Z,11.28
2019-02-07T09:34:44.701Z,12.05
2019-02-07T09:36:10.109Z,10.72
2019-02-07T09:37:36.133Z,11.55
2019-02-07T09:39:01.722Z,11.75
2019-02-07T09:40:41.466Z,11.95
2019-02-07T09:42:06.048Z,10.32
2019-02-07T09:43:21.611Z,11.05
2019-02-07T09:45:02.572Z,9.98
2019-02-07T09:46:32.080Z,10.85
2019-02-07T09:47:56.365Z,10.75
2019-02-07T09:49:24.738Z,12.33
2019-02-07T09:50:48.703Z,11.73
2019-02-07T09:52:16.852Z,11.12
2019-02-07T09:53:38.086Z,10.48
2019-02-07T09:54:56.919Z,10.95
2019-02-07T09:56:22.219Z,10.78
2019-02-07T09:57:46.593Z,12.37
2019-02-07T09:59:21.737Z,11.90
2019-02-07T10:00:36.169Z,11.30
2019-02-07T10:02:01.592Z,12.40
2019-02-07T10:03:30.151Z,11.90
2019-02-07T10:04:50.036Z,12.23
2019-02-07T10:06:14.918Z,13.28
2019-02-07T10:07:43.184Z,13.50
2019-02-07T10:09:07.257Z,12.55
2019-02-07T10:10:45.566Z,12.85
2019-02-07T10:12:27.049Z,12.28
2019-02-07T10:13:56.128Z,13.32
2019-02-07T10:15:36.878Z,13.35
2019-02-07T10:17:01.262Z,13.50
2019-02-07T10:18:33.061Z,12.85
2019-02-07T10:20:07.330Z,12.53
2019-02-07T10:21:31.096Z,12.90
2019-02-07T10:22:56.695Z,12.33
2019-02-07T10:24:31.413Z,12.40
2019-02-07T10:25:57.122Z,12.35
2019-02-07T10:27:22.645Z,11.75
2019-02-07T10:28:47.232Z,12.45
2019-02-07T10:30:13.655Z,11.10
2019-02-07T10:31:42.100Z,11.65
2019-02-07T10:33:08.440Z,12.10
2019-02-07T10:34:37.643Z,12.40
2019-02-07T10:36:01.898Z,11.03
2019-02-07T10:37:27.819Z,11.80
2019-02-07T10:38:53.423Z,10.43
2019-02-07T10:40:19.885Z,11.03
2019-02-07T10:41:33.575Z,10.48
2019-02-07T10:43:05.645Z,9.80
2019-02-07T10:44:49.469Z,11.12
2019-02-07T10:46:14.870Z,10.40
2019-02-07T10:47:58.805Z,10.85
2019-02-07T10:49:30.459Z,10.95
2019-02-07T10:50:54.971Z,11.05
2019-02-07T10:52:21.469Z,11.15
2019-02-07T10:53:34.575Z,11.60
2019-02-07T10:55:09.299Z,11.90
2019-02-07T10:56:34.708Z,11.68
2019-02-07T10:57:57.043Z,12.30
2019-02-07T10:59:25.406Z,12.37
2019-02-07T11:00:56.538Z,11.45
2019-02-07T11:02:22.142Z,11.63
2019-02-07T11:03:47.346Z,12.23
2019-02-07T11:05:28.020Z,12.60
2019-02-07T11:07:00.995Z,11.03
2019-02-07T11:08:25.269Z,11.90
2019-02-07T11:09:53.126Z,11.78
2019-02-07T11:11:24.764Z,11.63
2019-02-07T11:12:49.041Z,11.20
2019-02-07T11:14:29.706Z,11.33
2019-02-07T11:16:04.016Z,10.75
2019-02-07T11:17:29.816Z,10.78
2019-02-07T11:18:57.789Z,10.55
2019-02-07T11:20:26.359Z,11.88
2019-02-07T11:21:46.654Z,10.48
2019-02-07T11:23:12.357Z,10.63
2019-02-07T11:24:35.303Z,11.00
2019-02-07T11:26:04.076Z,10.48
2019-02-07T11:27:20.895Z,10.68
2019-02-07T11:28:44.848Z,10.72
2019-02-07T11:30:09.436Z,10.40
2019-02-07T11:31:37.804Z,11.38
2019-02-07T11:32:51.225Z,10.23
2019-02-07T11:34:15.092Z,9.95
2019-02-07T11:35:34.153Z,10.20
2019-02-07T11:36:54.406Z,11.20
2019-02-07T11:38:18.597Z,10.40
2019-02-07T11:39:43.916Z,10.35
2019-02-07T11:41:08.179Z,9.90
2019-02-07T11:42:32.247Z,10.05
2019-02-07T11:44:05.940Z,10.23
2019-02-07T11:45:31.042Z,10.15
2019-02-07T11:47:05.141Z,10.38
2019-02-07T11:48:24.410Z,10.38
2019-02-07T11:49:52.819Z,9.08
2019-02-07T11:51:18.479Z,9.63
2019-02-07T11:52:43.171Z,9.60
2019-02-07T11:54:15.111Z,9.95
2019-02-07T11:55:34.078Z,10.93
2019-02-07T11:56:59.557Z,11.10
2019-02-07T11:58:24.062Z,11.65
2019-02-07T11:59:56.227Z,10.23
2019-02-07T12:01:35.777Z,9.65
2019-02-07T12:03:04.029Z,9.68
2019-02-07T12:04:37.829Z,9.55
2019-02-07T12:06:18.162Z,9.68
2019-02-07T12:07:46.434Z,10.45
2019-02-07T12:09:20.105Z,9.63
2019-02-07T12:10:51.919Z,10.20
2019-02-07T12:12:25.801Z,10.32
2019-02-07T12:13:47.094Z,11.35
2019-02-07T12:15:15.258Z,11.15
2019-02-07T12:16:39.339Z,12.25
2019-02-07T12:18:04.938Z,13.10
2019-02-07T12:19:29.316Z,12.28
2019-02-07T12:20:53.189Z,14.90
2019-02-07T12:22:37.473Z,15.18
2019-02-07T12:24:09.489Z,12.58
2019-02-07T12:25:28.540Z,13.05
2019-02-07T12:26:52.512Z,12.40
2019-02-07T12:28:24.266Z,12.78
2019-02-07T12:29:52.938Z,15.28
2019-02-07T12:31:17.528Z,13.25
2019-02-07T12:32:46.917Z,12.80
2019-02-07T12:34:18.462Z,12.70
2019-02-07T12:35:41.507Z,13.68
2019-02-07T12:37:06.309Z,13.88
2019-02-07T12:38:40.719Z,12.95
2019-02-07T12:40:18.193Z,12.82
2019-02-07T12:41:42.582Z,12.95
2019-02-07T12:43:01.117Z,13.45
2019-02-07T12:44:27.491Z,12.88
2019-02-07T12:46:09.024Z,12.23
2019-02-07T12:47:31.562Z,13.45
2019-02-07T12:48:56.960Z,12.37
2019-02-07T12:50:28.411Z,12.60
2019-02-07T12:51:53.646Z,12.55
2019-02-07T12:53:23.092Z,13.62
2019-02-07T12:55:01.007Z,12.43
2019-02-07T12:56:25.790Z,12.95
2019-02-07T12:57:52.421Z,12.68
2019-02-07T12:59:33.599Z,14.07
2019-02-07T13:01:05.957Z,13.35
2019-02-07T13:02:46.941Z,11.85
2019-02-07T13:04:21.838Z,14.45
2019-02-07T13:05:53.914Z,13.20
2019-02-07T13:07:22.073Z,13.08
2019-02-07T13:08:47.370Z,13.62
2019-02-07T13:10:11.440Z,13.15
2019-02-07T13:11:36.251Z,13.60
2019-02-07T13:12:56.246Z,13.90
2019-02-07T13:14:09.765Z,13.43
2019-02-07T13:15:35.641Z,13.80
2019-02-07T13:17:00.018Z,12.70
2019-02-07T13:18:36.888Z,13.78
2019-02-07T13:20:02.096Z,14.23
2019-02-07T13:21:26.693Z,14.30
2019-02-07T13:23:07.846Z,13.32
2019-02-07T13:24:32.010Z,14.40
2019-02-07T13:25:58.310Z,13.85
2019-02-07T13:27:22.739Z,14.28
2019-02-07T13:28:54.018Z,13.83
2019-02-07T13:30:22.839Z,14.07
2019-02-07T13:31:43.034Z,13.55
2019-02-07T13:33:05.082Z,14.87
2019-02-07T13:34:30.755Z,14.58
2019-02-07T13:35:59.387Z,15.98
2019-02-07T13:37:13.562Z,14.20
2019-02-07T13:38:48.505Z,15.32
2019-02-07T13:40:22.441Z,14.25
2019-02-07T13:41:41.446Z,15.72
2019-02-07T13:43:07.970Z,15.70
2019-02-07T13:44:33.571Z,14.35
2019-02-07T13:45:57.567Z,15.68
2019-02-07T13:47:25.810Z,14.30
2019-02-07T13:49:00.945Z,14.78
2019-02-07T13:50:27.682Z,14.40
2019-02-07T13:51:56.874Z,14.83
2019-02-07T13:53:24.319Z,15.30
2019-02-07T13:54:42.663Z,14.80
2019-02-07T13:56:08.569Z,15.23
2019-02-07T13:57:49.532Z,13.93
2019-02-07T13:59:16.576Z,13.95
2019-02-07T14:00:45.163Z,14.10
2019-02-07T14:02:16.608Z,13.43
2019-02-07T14:03:36.962Z,14.98
2019-02-07T14:05:17.740Z,14.23
2019-02-07T14:06:43.448Z,14.53
2019-02-07T14:08:15.109Z,14.58
2019-02-07T14:09:36.917Z,15.60
2019-02-07T14:11:05.291Z,14.90
2019-02-07T14:12:29.573Z,15.80
2019-02-07T14:13:58.152Z,15.18
2019-02-07T14:15:28.053Z,15.83
2019-02-07T14:16:44.497Z,15.78
2019-02-07T14:18:04.968Z,15.20
2019-02-07T14:19:30.863Z,16.27
2019-02-07T14:20:55.321Z,15.93
2019-02-07T14:22:21.141Z,16.93
2019-02-07T14:23:50.224Z,17.40
2019-02-07T14:25:14.478Z,16.77
2019-02-07T14:26:41.943Z,17.40
2019-02-07T14:28:01.930Z,17.02
2019-02-07T14:29:40.022Z,18.48
2019-02-07T14:30:58.431Z,18.60
2019-02-07T14:32:18.148Z,17.90
2019-02-07T14:33:58.890Z,18.75
2019-02-07T14:35:23.577Z,18.85
2019-02-07T14:37:02.906Z,19.40
2019-02-07T14:38:38.143Z,19.35
2019-02-07T14:40:02.223Z,18.85
2019-02-07T14:41:43.697Z,19.40
2019-02-07T14:43:00.282Z,18.37
2019-02-07T14:44:30.200Z,19.57
2019-02-07T14:45:58.973Z,19.20
2019-02-07T14:47:05.732Z,19.07
2019-02-07T14:48:25.923Z,19.77
2019-02-07T14:49:33.708Z,21.37
2019-02-07T14:50:40.271Z,21.60
2019-02-07T14:51:47.463Z,22.02
2019-02-07T14:52:54.125Z,23.92
2019-02-07T14:54:00.822Z,21.82
2019-02-07T14:55:07.972Z,23.77
2019-02-07T14:56:14.335Z,23.38
2019-02-07T14:57:21.655Z,21.70
2019-02-07T14:58:28.639Z,21.57
2019-02-07T14:59:35.165Z,21.90
2019-02-07T15:00:42.963Z,21.70
2019-02-07T15:01:49.879Z,23.87
2019-02-07T15:02:56.895Z,21.70
2019-02-07T15:04:04.325Z,23.38
2019-02-07T15:05:12.085Z,23.10
2019-02-07T15:06:18.822Z,21.48
2019-02-07T15:07:25.405Z,20.55
2019-02-07T15:08:32.084Z,22.35
2019-02-07T15:09:39.099Z,24.15
2019-02-07T15:10:45.539Z,23.60
2019-02-07T15:11:52.084Z,23.38
2019-02-07T15:13:01.192Z,23.50
2019-02-07T15:14:07.117Z,23.32
2019-02-07T15:15:15.216Z,22.77
2019-02-07T15:16:21.526Z,23.55
2019-02-07T15:17:28.122Z,22.37
2019-02-07T15:18:34.524Z,22.07
2019-02-07T15:19:40.977Z,21.82
2019-02-07T15:20:47.343Z,22.55
2019-02-07T15:21:53.685Z,22.82
2019-02-07T15:23:01.225Z,26.17
2019-02-07T15:24:08.506Z,30.60
2019-02-07T15:25:15.323Z,42.30
2019-02-07T15:26:21.722Z,40.10
2019-02-07T15:27:29.327Z,29.32
2019-02-07T15:28:35.814Z,30.77
2019-02-07T15:29:42.613Z,33.45
2019-02-07T15:30:49.491Z,37.33
2019-02-07T15:31:56.468Z,27.90
2019-02-07T15:33:03.013Z,23.12
2019-02-07T15:34:10.520Z,40.35
2019-02-07T15:35:23.562Z,30.20
2019-02-07T15:36:30.115Z,38.33
2019-02-07T15:37:36.913Z,46.20
2019-02-07T15:38:43.553Z,45.15
2019-02-07T15:39:49.932Z,48.52
2019-02-07T15:40:56.377Z,47.00
2019-02-07T15:42:02.798Z,44.90
2019-02-07T15:43:09.306Z,52.65
2019-02-07T15:44:15.950Z,54.23
2019-02-07T15:45:22.639Z,38.45
2019-02-07T15:46:29.281Z,40.23
2019-02-07T15:47:35.777Z,40.92
2019-02-07T15:48:42.192Z,47.30
2019-02-07T15:49:48.681Z,43.05
2019-02-07T15:50:54.914Z,39.33
2019-02-07T15:52:01.169Z,41.77
2019-02-07T15:53:07.713Z,37.33
2019-02-07T15:54:14.170Z,33.13
2019-02-07T15:55:22.007Z,35.50
2019-02-07T15:56:28.383Z,25.40
2019-02-07T15:57:34.929Z,24.15
2019-02-07T15:59:00.787Z,27.32
2019-02-07T16:00:26.117Z,29.30
2019-02-07T16:01:42.076Z,27.48
2019-02-07T16:02:53.550Z,25.75
2019-02-07T16:04:10.950Z,24.23
2019-02-07T16:05:18.100Z,22.22
2019-02-07T16:06:24.980Z,22.00
2019-02-07T16:07:31.521Z,21.70
2019-02-07T16:08:38.392Z,22.95
2019-02-07T16:09:44.758Z,21.12
2019-02-07T16:10:51.255Z,21.25
2019-02-07T16:11:57.607Z,21.87
2019-02-07T16:13:04.251Z,23.42
2019-02-07T16:14:10.850Z,24.67
2019-02-07T16:15:17.556Z,27.42
2019-02-07T16:16:24.363Z,24.67
2019-02-07T16:17:30.993Z,27.22
2019-02-07T16:18:38.608Z,27.58
2019-02-07T16:19:45.279Z,26.35
2019-02-07T16:20:53.073Z,28.47
2019-02-07T16:21:59.842Z,24.02
2019-02-07T16:23:06.584Z,27.13
2019-02-07T16:24:12.479Z,24.57
2019-02-07T16:25:20.425Z,25.82
2019-02-07T16:26:26.957Z,25.52
2019-02-07T16:27:33.520Z,26.17
2019-02-07T16:28:40.085Z,24.87
2019-02-07T16:29:47.500Z,26.35
2019-02-07T16:30:54.074Z,25.55
2019-02-07T16:32:00.819Z,27.05
2019-02-07T16:33:07.913Z,26.02
2019-02-07T16:34:14.670Z,25.32
2019-02-07T16:35:22.044Z,26.42
2019-02-07T16:36:28.695Z,37.88
2019-02-07T16:37:35.457Z,28.12
2019-02-07T16:38:41.890Z,31.82
2019-02-07T16:39:49.196Z,26.45
2019-02-07T16:40:55.939Z,22.82
2019-02-07T16:42:06.278Z,23.25
2019-02-07T16:43:10.528Z,23.62
2019-02-07T16:44:17.900Z,25.37
2019-02-07T16:45:25.278Z,25.35
2019-02-07T16:46:32.740Z,24.15
2019-02-07T16:47:39.093Z,25.70
2019-02-07T16:48:45.580Z,26.77
2019-02-07T16:49:51.913Z,24.63
2019-02-07T16:51:00.204Z,24.55
2019-02-07T16:52:06.912Z,24.40
2019-02-07T16:53:13.736Z,24.40
2019-02-07T16:54:20.219Z,24.65
2019-02-07T16:55:26.744Z,22.73
2019-02-07T16:56:33.183Z,22.70
2019-02-07T16:57:39.782Z,21.70
2019-02-07T16:58:46.177Z,22.17
2019-02-07T16:59:52.834Z,20.68
2019-02-07T17:00:59.394Z,22.02
2019-02-07T17:02:06.630Z,23.12
2019-02-07T17:03:13.025Z,22.75
2019-02-07T17:04:19.256Z,22.37
2019-02-07T17:05:26.368Z,22.52
2019-02-07T17:06:32.952Z,22.93
2019-02-07T17:07:39.609Z,23.27
2019-02-07T17:08:46.729Z,24.00
2019-02-07T17:09:53.583Z,25.40
2019-02-07T17:11:20.883Z,24.63